sensor_id;sensor_type;location;lat;lon;timestamp;P1;durP1;ratioP1;P2;durP2;ratioP2
4313;SDS011;2170;48.794;9.182;2022-09-09T00:00:20;3.57;;;1.70;;
4313;SDS011;2170;48.794;9.182;2022-09-09T00:02:50;3.53;;;1.73;;
4313;SDS011;2170;48.794;9.182;2022-09-09T00:05:23;3.20;;;2.10;;
4313;SDS011;2170;48.794;9.182;2022-09-09T00:07:54;3.50;;;1.43;;
4313;SDS011;2170;48.794;9.182;2022-09-09T00:10:23;3.07;;;1.60;;
4313;SDS011;2170;48.794;9.182;2022-09-09T00:12:55;1.83;;;1.70;;
4313;SDS011;2170;48.794;9.182;2022-09-09T00:15:27;2.00;;;1.60;;
4313;SDS011;2170;48.794;9.182;2022-09-09T00:17:56;1.77;;;1.60;;
4313;SDS011;2170;48.794;9.182;2022-09-09T00:20:26;2.30;;;2.10;;
4313;SDS011;2170;48.794;9.182;2022-09-09T00:22:57;3.20;;;1.57;;
4313;SDS011;2170;48.794;9.182;2022-09-09T00:25:27;3.33;;;1.60;;
4313;SDS011;2170;48.794;9.182;2022-09-09T00:27:55;2.70;;;1.50;;
4313;SDS011;2170;48.794;9.182;2022-09-09T00:30:23;2.50;;;1.50;;
4313;SDS011;2170;48.794;9.182;2022-09-09T00:32:53;2.27;;;1.60;;
4313;SDS011;2170;48.794;9.182;2022-09-09T00:35:24;1.33;;;1.23;;
4313;SDS011;2170;48.794;9.182;2022-09-09T00:37:52;1.90;;;1.73;;
4313;SDS011;2170;48.794;9.182;2022-09-09T00:40:23;2.80;;;1.40;;
4313;SDS011;2170;48.794;9.182;2022-09-09T00:42:53;6.30;;;1.60;;
4313;SDS011;2170;48.794;9.182;2022-09-09T00:45:29;1.67;;;1.40;;
4313;SDS011;2170;48.794;9.182;2022-09-09T00:48:03;1.47;;;1.33;;
4313;SDS011;2170;48.794;9.182;2022-09-09T00:50:39;1.83;;;1.73;;
4313;SDS011;2170;48.794;9.182;2022-09-09T00:53:14;1.73;;;1.60;;
4313;SDS011;2170;48.794;9.182;2022-09-09T00:55:46;1.27;;;1.20;;
4313;SDS011;2170;48.794;9.182;2022-09-09T00:58:15;1.47;;;1.37;;
4313;SDS011;2170;48.794;9.182;2022-09-09T01:00:43;1.40;;;1.30;;
4313;SDS011;2170;48.794;9.182;2022-09-09T01:03:25;2.53;;;1.13;;
4313;SDS011;2170;48.794;9.182;2022-09-09T01:11:23;2.40;;;1.43;;
4313;SDS011;2170;48.794;9.182;2022-09-09T01:13:53;3.07;;;1.57;;
4313;SDS011;2170;48.794;9.182;2022-09-09T01:16:23;2.90;;;1.27;;
4313;SDS011;2170;48.794;9.182;2022-09-09T01:18:53;1.43;;;1.27;;
4313;SDS011;2170;48.794;9.182;2022-09-09T01:21:22;1.83;;;1.30;;
4313;SDS011;2170;48.794;9.182;2022-09-09T01:24:08;4.50;;;1.90;;
4313;SDS011;2170;48.794;9.182;2022-09-09T01:26:42;4.30;;;1.40;;
4313;SDS011;2170;48.794;9.182;2022-09-09T01:29:11;1.67;;;1.57;;
4313;SDS011;2170;48.794;9.182;2022-09-09T01:31:40;2.33;;;1.30;;
4313;SDS011;2170;48.794;9.182;2022-09-09T01:34:10;2.60;;;1.57;;
4313;SDS011;2170;48.794;9.182;2022-09-09T01:36:38;3.80;;;1.63;;
4313;SDS011;2170;48.794;9.182;2022-09-09T01:39:07;2.73;;;1.63;;
4313;SDS011;2170;48.794;9.182;2022-09-09T01:41:34;2.00;;;1.10;;
4313;SDS011;2170;48.794;9.182;2022-09-09T01:44:03;5.00;;;2.03;;
4313;SDS011;2170;48.794;9.182;2022-09-09T01:46:30;1.43;;;1.07;;
4313;SDS011;2170;48.794;9.182;2022-09-09T01:48:57;1.93;;;1.50;;
4313;SDS011;2170;48.794;9.182;2022-09-09T01:51:25;2.87;;;1.53;;
4313;SDS011;2170;48.794;9.182;2022-09-09T01:53:52;2.40;;;1.30;;
4313;SDS011;2170;48.794;9.182;2022-09-09T01:56:26;1.63;;;1.10;;
4313;SDS011;2170;48.794;9.182;2022-09-09T01:59:01;2.60;;;1.40;;
4313;SDS011;2170;48.794;9.182;2022-09-09T02:01:35;2.23;;;1.77;;
4313;SDS011;2170;48.794;9.182;2022-09-09T02:04:04;4.20;;;1.83;;
4313;SDS011;2170;48.794;9.182;2022-09-09T02:06:35;1.83;;;1.30;;
4313;SDS011;2170;48.794;9.182;2022-09-09T02:09:04;1.60;;;1.40;;
4313;SDS011;2170;48.794;9.182;2022-09-09T02:11:32;1.80;;;1.43;;
4313;SDS011;2170;48.794;9.182;2022-09-09T02:14:00;2.47;;;1.80;;
4313;SDS011;2170;48.794;9.182;2022-09-09T02:16:28;2.50;;;1.40;;
4313;SDS011;2170;48.794;9.182;2022-09-09T02:19:00;3.30;;;1.60;;
4313;SDS011;2170;48.794;9.182;2022-09-09T02:21:28;5.40;;;1.57;;
4313;SDS011;2170;48.794;9.182;2022-09-09T02:23:56;3.03;;;1.40;;
4313;SDS011;2170;48.794;9.182;2022-09-09T02:26:24;2.37;;;1.50;;
4313;SDS011;2170;48.794;9.182;2022-09-09T02:28:52;1.23;;;1.10;;
4313;SDS011;2170;48.794;9.182;2022-09-09T02:31:21;3.30;;;1.70;;
4313;SDS011;2170;48.794;9.182;2022-09-09T02:33:51;1.93;;;1.37;;
4313;SDS011;2170;48.794;9.182;2022-09-09T02:36:20;1.20;;;1.10;;
4313;SDS011;2170;48.794;9.182;2022-09-09T02:38:48;1.90;;;1.40;;
4313;SDS011;2170;48.794;9.182;2022-09-09T02:41:18;2.30;;;1.30;;
4313;SDS011;2170;48.794;9.182;2022-09-09T02:43:46;1.53;;;1.00;;
4313;SDS011;2170;48.794;9.182;2022-09-09T02:46:18;2.60;;;1.10;;
4313;SDS011;2170;48.794;9.182;2022-09-09T02:48:51;4.30;;;1.43;;
4313;SDS011;2170;48.794;9.182;2022-09-09T02:51:24;4.87;;;1.40;;
4313;SDS011;2170;48.794;9.182;2022-09-09T02:53:56;5.30;;;1.40;;
4313;SDS011;2170;48.794;9.182;2022-09-09T02:56:25;1.97;;;1.53;;
4313;SDS011;2170;48.794;9.182;2022-09-09T02:58:53;1.60;;;1.50;;
4313;SDS011;2170;48.794;9.182;2022-09-09T03:01:20;2.80;;;1.60;;
4313;SDS011;2170;48.794;9.182;2022-09-09T03:03:48;1.33;;;1.20;;
4313;SDS011;2170;48.794;9.182;2022-09-09T03:06:15;3.13;;;1.50;;
4313;SDS011;2170;48.794;9.182;2022-09-09T03:08:43;1.87;;;1.33;;
4313;SDS011;2170;48.794;9.182;2022-09-09T03:11:10;2.30;;;1.43;;
4313;SDS011;2170;48.794;9.182;2022-09-09T03:13:39;5.43;;;1.20;;
4313;SDS011;2170;48.794;9.182;2022-09-09T03:16:06;2.40;;;1.50;;
4313;SDS011;2170;48.794;9.182;2022-09-09T03:18:33;2.00;;;1.33;;
4313;SDS011;2170;48.794;9.182;2022-09-09T03:21:00;3.00;;;1.30;;
4313;SDS011;2170;48.794;9.182;2022-09-09T03:23:27;1.87;;;1.00;;
4313;SDS011;2170;48.794;9.182;2022-09-09T03:25:56;1.63;;;1.10;;
4313;SDS011;2170;48.794;9.182;2022-09-09T03:28:23;1.50;;;1.17;;
4313;SDS011;2170;48.794;9.182;2022-09-09T03:30:57;1.57;;;1.30;;
4313;SDS011;2170;48.794;9.182;2022-09-09T03:33:24;1.33;;;1.17;;
4313;SDS011;2170;48.794;9.182;2022-09-09T03:35:52;1.30;;;1.13;;
4313;SDS011;2170;48.794;9.182;2022-09-09T03:38:21;1.80;;;1.27;;
4313;SDS011;2170;48.794;9.182;2022-09-09T03:40:49;3.10;;;1.70;;
4313;SDS011;2170;48.794;9.182;2022-09-09T03:43:17;2.13;;;1.20;;
4313;SDS011;2170;48.794;9.182;2022-09-09T03:45:46;1.57;;;0.97;;
4313;SDS011;2170;48.794;9.182;2022-09-09T03:48:13;3.77;;;1.60;;
4313;SDS011;2170;48.794;9.182;2022-09-09T03:50:43;2.23;;;1.40;;
4313;SDS011;2170;48.794;9.182;2022-09-09T03:53:10;1.13;;;0.80;;
4313;SDS011;2170;48.794;9.182;2022-09-09T03:55:37;2.63;;;1.37;;
4313;SDS011;2170;48.794;9.182;2022-09-09T03:58:06;3.17;;;1.60;;
4313;SDS011;2170;48.794;9.182;2022-09-09T04:00:35;3.77;;;1.23;;
4313;SDS011;2170;48.794;9.182;2022-09-09T04:03:02;1.47;;;1.37;;
4313;SDS011;2170;48.794;9.182;2022-09-09T04:05:29;1.73;;;1.20;;
4313;SDS011;2170;48.794;9.182;2022-09-09T04:07:58;1.63;;;0.93;;
4313;SDS011;2170;48.794;9.182;2022-09-09T04:10:25;1.47;;;1.37;;
4313;SDS011;2170;48.794;9.182;2022-09-09T04:12:53;2.93;;;1.30;;
4313;SDS011;2170;48.794;9.182;2022-09-09T04:15:20;2.90;;;1.23;;
4313;SDS011;2170;48.794;9.182;2022-09-09T04:17:49;2.47;;;1.40;;
4313;SDS011;2170;48.794;9.182;2022-09-09T04:20:16;2.80;;;1.20;;
4313;SDS011;2170;48.794;9.182;2022-09-09T04:22:44;2.13;;;1.73;;
4313;SDS011;2170;48.794;9.182;2022-09-09T04:25:11;2.17;;;1.60;;
4313;SDS011;2170;48.794;9.182;2022-09-09T04:27:38;1.20;;;1.10;;
4313;SDS011;2170;48.794;9.182;2022-09-09T04:30:05;1.50;;;1.30;;
4313;SDS011;2170;48.794;9.182;2022-09-09T04:32:32;1.40;;;1.30;;
4313;SDS011;2170;48.794;9.182;2022-09-09T04:35:02;1.10;;;1.03;;
4313;SDS011;2170;48.794;9.182;2022-09-09T04:37:29;1.93;;;1.03;;
4313;SDS011;2170;48.794;9.182;2022-09-09T04:39:56;1.33;;;1.23;;
4313;SDS011;2170;48.794;9.182;2022-09-09T04:42:27;1.93;;;1.20;;
4313;SDS011;2170;48.794;9.182;2022-09-09T04:44:54;2.10;;;1.73;;
4313;SDS011;2170;48.794;9.182;2022-09-09T04:47:21;2.20;;;1.60;;
4313;SDS011;2170;48.794;9.182;2022-09-09T04:49:48;3.57;;;1.70;;
4313;SDS011;2170;48.794;9.182;2022-09-09T04:52:18;1.70;;;1.60;;
4313;SDS011;2170;48.794;9.182;2022-09-09T04:54:45;3.03;;;1.60;;
4313;SDS011;2170;48.794;9.182;2022-09-09T04:57:13;2.07;;;1.30;;
4313;SDS011;2170;48.794;9.182;2022-09-09T04:59:40;3.27;;;2.97;;
4313;SDS011;2170;48.794;9.182;2022-09-09T05:02:07;4.53;;;1.60;;
4313;SDS011;2170;48.794;9.182;2022-09-09T05:04:35;2.93;;;1.60;;
4313;SDS011;2170;48.794;9.182;2022-09-09T05:07:02;2.20;;;1.70;;
4313;SDS011;2170;48.794;9.182;2022-09-09T05:09:30;1.70;;;1.50;;
4313;SDS011;2170;48.794;9.182;2022-09-09T05:11:57;1.97;;;1.50;;
4313;SDS011;2170;48.794;9.182;2022-09-09T05:14:24;1.70;;;1.60;;
4313;SDS011;2170;48.794;9.182;2022-09-09T05:16:51;1.60;;;1.50;;
4313;SDS011;2170;48.794;9.182;2022-09-09T05:19:18;1.57;;;1.40;;
4313;SDS011;2170;48.794;9.182;2022-09-09T05:21:45;3.40;;;1.73;;
4313;SDS011;2170;48.794;9.182;2022-09-09T05:24:12;2.33;;;2.13;;
4313;SDS011;2170;48.794;9.182;2022-09-09T05:26:41;2.40;;;1.60;;
4313;SDS011;2170;48.794;9.182;2022-09-09T05:29:08;2.00;;;1.73;;
4313;SDS011;2170;48.794;9.182;2022-09-09T05:31:35;2.47;;;1.80;;
4313;SDS011;2170;48.794;9.182;2022-09-09T05:34:03;1.83;;;1.50;;
4313;SDS011;2170;48.794;9.182;2022-09-09T05:36:30;2.37;;;1.70;;
4313;SDS011;2170;48.794;9.182;2022-09-09T05:38:57;4.27;;;2.30;;
4313;SDS011;2170;48.794;9.182;2022-09-09T05:41:26;2.87;;;1.90;;
4313;SDS011;2170;48.794;9.182;2022-09-09T05:43:55;5.13;;;1.90;;
4313;SDS011;2170;48.794;9.182;2022-09-09T05:46:24;2.50;;;1.67;;
4313;SDS011;2170;48.794;9.182;2022-09-09T05:48:51;1.97;;;1.60;;
4313;SDS011;2170;48.794;9.182;2022-09-09T05:51:18;2.33;;;1.90;;
4313;SDS011;2170;48.794;9.182;2022-09-09T05:53:47;4.37;;;2.30;;
4313;SDS011;2170;48.794;9.182;2022-09-09T05:56:15;3.87;;;2.03;;
4313;SDS011;2170;48.794;9.182;2022-09-09T05:58:42;1.60;;;1.50;;
4313;SDS011;2170;48.794;9.182;2022-09-09T06:01:12;3.00;;;2.00;;
4313;SDS011;2170;48.794;9.182;2022-09-09T06:03:39;1.90;;;1.73;;
4313;SDS011;2170;48.794;9.182;2022-09-09T06:06:07;3.67;;;1.90;;
4313;SDS011;2170;48.794;9.182;2022-09-09T06:08:35;1.70;;;1.60;;
4313;SDS011;2170;48.794;9.182;2022-09-09T06:11:03;4.20;;;2.20;;
4313;SDS011;2170;48.794;9.182;2022-09-09T06:13:31;6.10;;;4.80;;
4313;SDS011;2170;48.794;9.182;2022-09-09T06:15:58;2.80;;;1.90;;
4313;SDS011;2170;48.794;9.182;2022-09-09T06:18:26;2.87;;;1.67;;
4313;SDS011;2170;48.794;9.182;2022-09-09T06:20:55;1.80;;;1.40;;
4313;SDS011;2170;48.794;9.182;2022-09-09T06:23:22;1.70;;;1.60;;
4313;SDS011;2170;48.794;9.182;2022-09-09T06:25:49;4.83;;;2.10;;
4313;SDS011;2170;48.794;9.182;2022-09-09T06:28:16;2.73;;;1.70;;
4313;SDS011;2170;48.794;9.182;2022-09-09T06:30:44;2.63;;;1.30;;
4313;SDS011;2170;48.794;9.182;2022-09-09T06:33:12;2.70;;;1.40;;
4313;SDS011;2170;48.794;9.182;2022-09-09T06:35:40;1.93;;;1.83;;
4313;SDS011;2170;48.794;9.182;2022-09-09T06:38:07;2.83;;;2.53;;
4313;SDS011;2170;48.794;9.182;2022-09-09T06:40:34;3.17;;;1.97;;
4313;SDS011;2170;48.794;9.182;2022-09-09T06:43:01;2.03;;;1.70;;
4313;SDS011;2170;48.794;9.182;2022-09-09T06:45:28;2.73;;;2.00;;
4313;SDS011;2170;48.794;9.182;2022-09-09T06:47:56;2.37;;;2.00;;
4313;SDS011;2170;48.794;9.182;2022-09-09T06:50:23;2.77;;;2.10;;
4313;SDS011;2170;48.794;9.182;2022-09-09T06:52:51;3.80;;;1.77;;
4313;SDS011;2170;48.794;9.182;2022-09-09T06:55:18;3.10;;;1.80;;
4313;SDS011;2170;48.794;9.182;2022-09-09T06:57:45;2.20;;;1.57;;
4313;SDS011;2170;48.794;9.182;2022-09-09T07:00:13;2.93;;;1.57;;
4313;SDS011;2170;48.794;9.182;2022-09-09T07:02:40;2.97;;;2.00;;
4313;SDS011;2170;48.794;9.182;2022-09-09T07:05:08;2.83;;;1.90;;
4313;SDS011;2170;48.794;9.182;2022-09-09T07:07:35;2.10;;;1.90;;
4313;SDS011;2170;48.794;9.182;2022-09-09T07:10:04;4.20;;;1.60;;
4313;SDS011;2170;48.794;9.182;2022-09-09T07:12:32;3.07;;;1.90;;
4313;SDS011;2170;48.794;9.182;2022-09-09T07:14:59;2.50;;;1.90;;
4313;SDS011;2170;48.794;9.182;2022-09-09T07:17:26;3.83;;;2.30;;
4313;SDS011;2170;48.794;9.182;2022-09-09T07:19:54;3.33;;;2.50;;
4313;SDS011;2170;48.794;9.182;2022-09-09T07:22:21;2.90;;;1.70;;
4313;SDS011;2170;48.794;9.182;2022-09-09T07:24:49;4.77;;;1.70;;
4313;SDS011;2170;48.794;9.182;2022-09-09T07:27:18;2.50;;;1.93;;
4313;SDS011;2170;48.794;9.182;2022-09-09T07:29:45;2.67;;;1.57;;
4313;SDS011;2170;48.794;9.182;2022-09-09T07:32:12;1.80;;;1.70;;
4313;SDS011;2170;48.794;9.182;2022-09-09T07:34:39;3.07;;;1.60;;
4313;SDS011;2170;48.794;9.182;2022-09-09T07:37:07;5.10;;;1.40;;
4313;SDS011;2170;48.794;9.182;2022-09-09T07:39:38;2.53;;;1.90;;
4313;SDS011;2170;48.794;9.182;2022-09-09T07:42:05;2.37;;;1.50;;
4313;SDS011;2170;48.794;9.182;2022-09-09T07:44:34;1.40;;;1.30;;
4313;SDS011;2170;48.794;9.182;2022-09-09T07:47:01;2.43;;;1.33;;
4313;SDS011;2170;48.794;9.182;2022-09-09T07:49:28;1.57;;;1.20;;
4313;SDS011;2170;48.794;9.182;2022-09-09T07:51:56;1.50;;;1.40;;
4313;SDS011;2170;48.794;9.182;2022-09-09T07:54:24;3.30;;;1.80;;
4313;SDS011;2170;48.794;9.182;2022-09-09T07:56:51;3.13;;;1.40;;
4313;SDS011;2170;48.794;9.182;2022-09-09T07:59:18;3.17;;;1.47;;
4313;SDS011;2170;48.794;9.182;2022-09-09T08:01:47;6.73;;;1.50;;
4313;SDS011;2170;48.794;9.182;2022-09-09T08:04:18;2.90;;;1.23;;
4313;SDS011;2170;48.794;9.182;2022-09-09T08:06:46;1.70;;;1.20;;
4313;SDS011;2170;48.794;9.182;2022-09-09T08:09:14;1.50;;;1.40;;
4313;SDS011;2170;48.794;9.182;2022-09-09T08:11:42;3.73;;;2.03;;
4313;SDS011;2170;48.794;9.182;2022-09-09T08:14:09;3.03;;;1.30;;
4313;SDS011;2170;48.794;9.182;2022-09-09T08:16:37;2.90;;;1.30;;
4313;SDS011;2170;48.794;9.182;2022-09-09T08:19:06;3.10;;;1.53;;
4313;SDS011;2170;48.794;9.182;2022-09-09T08:21:34;1.33;;;0.90;;
4313;SDS011;2170;48.794;9.182;2022-09-09T08:24:02;3.67;;;1.50;;
4313;SDS011;2170;48.794;9.182;2022-09-09T08:26:30;3.20;;;1.50;;
4313;SDS011;2170;48.794;9.182;2022-09-09T08:28:59;3.90;;;1.60;;
4313;SDS011;2170;48.794;9.182;2022-09-09T08:31:26;2.50;;;1.30;;
4313;SDS011;2170;48.794;9.182;2022-09-09T08:33:54;1.30;;;1.13;;
4313;SDS011;2170;48.794;9.182;2022-09-09T08:36:23;1.37;;;1.10;;
4313;SDS011;2170;48.794;9.182;2022-09-09T08:38:52;1.63;;;1.23;;
4313;SDS011;2170;48.794;9.182;2022-09-09T08:44:09;2.40;;;1.40;;
4313;SDS011;2170;48.794;9.182;2022-09-09T08:46:40;3.87;;;1.93;;
4313;SDS011;2170;48.794;9.182;2022-09-09T08:49:13;3.83;;;1.50;;
4313;SDS011;2170;48.794;9.182;2022-09-09T08:51:44;2.97;;;1.23;;
4313;SDS011;2170;48.794;9.182;2022-09-09T08:54:11;2.40;;;1.37;;
4313;SDS011;2170;48.794;9.182;2022-09-09T08:56:38;2.20;;;1.20;;
4313;SDS011;2170;48.794;9.182;2022-09-09T08:59:05;3.33;;;1.67;;
4313;SDS011;2170;48.794;9.182;2022-09-09T09:01:38;2.27;;;0.90;;
4313;SDS011;2170;48.794;9.182;2022-09-09T09:04:11;4.90;;;1.40;;
4313;SDS011;2170;48.794;9.182;2022-09-09T09:06:45;3.00;;;1.53;;
4313;SDS011;2170;48.794;9.182;2022-09-09T09:09:19;4.10;;;1.17;;
4313;SDS011;2170;48.794;9.182;2022-09-09T09:11:48;1.70;;;1.40;;
4313;SDS011;2170;48.794;9.182;2022-09-09T09:14:17;2.40;;;1.20;;
4313;SDS011;2170;48.794;9.182;2022-09-09T09:16:48;2.57;;;1.73;;
4313;SDS011;2170;48.794;9.182;2022-09-09T09:19:16;2.90;;;1.23;;
4313;SDS011;2170;48.794;9.182;2022-09-09T09:21:50;4.47;;;1.20;;
4313;SDS011;2170;48.794;9.182;2022-09-09T09:24:20;1.33;;;0.83;;
4313;SDS011;2170;48.794;9.182;2022-09-09T09:26:47;2.63;;;1.13;;
4313;SDS011;2170;48.794;9.182;2022-09-09T09:29:15;3.93;;;1.10;;
4313;SDS011;2170;48.794;9.182;2022-09-09T09:31:43;2.10;;;1.20;;
4313;SDS011;2170;48.794;9.182;2022-09-09T09:34:12;6.00;;;1.47;;
4313;SDS011;2170;48.794;9.182;2022-09-09T09:36:41;1.20;;;1.00;;
4313;SDS011;2170;48.794;9.182;2022-09-09T09:39:21;1.53;;;1.13;;
4313;SDS011;2170;48.794;9.182;2022-09-09T09:41:49;1.40;;;1.00;;
4313;SDS011;2170;48.794;9.182;2022-09-09T09:44:21;1.33;;;0.87;;
4313;SDS011;2170;48.794;9.182;2022-09-09T09:46:48;1.70;;;0.70;;
4313;SDS011;2170;48.794;9.182;2022-09-09T09:49:15;1.30;;;0.93;;
4313;SDS011;2170;48.794;9.182;2022-09-09T09:51:43;2.80;;;0.97;;
4313;SDS011;2170;48.794;9.182;2022-09-09T09:54:17;2.83;;;0.77;;
4313;SDS011;2170;48.794;9.182;2022-09-09T09:56:46;0.80;;;0.80;;
4313;SDS011;2170;48.794;9.182;2022-09-09T09:59:20;1.40;;;0.77;;
4313;SDS011;2170;48.794;9.182;2022-09-09T10:01:47;1.60;;;0.80;;
4313;SDS011;2170;48.794;9.182;2022-09-09T10:04:15;2.50;;;1.10;;
4313;SDS011;2170;48.794;9.182;2022-09-09T10:06:43;2.53;;;1.47;;
4313;SDS011;2170;48.794;9.182;2022-09-09T10:09:20;1.90;;;0.70;;
4313;SDS011;2170;48.794;9.182;2022-09-09T10:11:49;1.30;;;0.90;;
4313;SDS011;2170;48.794;9.182;2022-09-09T10:14:20;1.90;;;1.13;;
4313;SDS011;2170;48.794;9.182;2022-09-09T10:16:52;2.60;;;1.20;;
4313;SDS011;2170;48.794;9.182;2022-09-09T10:19:27;2.10;;;1.03;;
4313;SDS011;2170;48.794;9.182;2022-09-09T10:21:58;2.00;;;1.10;;
4313;SDS011;2170;48.794;9.182;2022-09-09T10:24:48;1.97;;;1.40;;
4313;SDS011;2170;48.794;9.182;2022-09-09T10:27:19;4.73;;;1.60;;
4313;SDS011;2170;48.794;9.182;2022-09-09T10:32:36;0.97;;;0.97;;
4313;SDS011;2170;48.794;9.182;2022-09-09T10:35:04;2.80;;;1.23;;
4313;SDS011;2170;48.794;9.182;2022-09-09T10:37:39;7.60;;;1.47;;
4313;SDS011;2170;48.794;9.182;2022-09-09T10:40:16;3.37;;;1.70;;
4313;SDS011;2170;48.794;9.182;2022-09-09T10:42:46;3.77;;;1.37;;
4313;SDS011;2170;48.794;9.182;2022-09-09T10:45:15;2.40;;;1.23;;
4313;SDS011;2170;48.794;9.182;2022-09-09T10:50:49;4.17;;;1.60;;
4313;SDS011;2170;48.794;9.182;2022-09-09T10:53:19;1.03;;;0.90;;
4313;SDS011;2170;48.794;9.182;2022-09-09T10:55:52;3.40;;;1.10;;
4313;SDS011;2170;48.794;9.182;2022-09-09T10:58:21;1.57;;;1.20;;
4313;SDS011;2170;48.794;9.182;2022-09-09T11:00:51;3.97;;;1.50;;
4313;SDS011;2170;48.794;9.182;2022-09-09T11:03:21;1.33;;;1.23;;
4313;SDS011;2170;48.794;9.182;2022-09-09T11:05:51;2.70;;;1.33;;
4313;SDS011;2170;48.794;9.182;2022-09-09T11:08:18;3.50;;;1.17;;
4313;SDS011;2170;48.794;9.182;2022-09-09T11:10:48;3.50;;;1.50;;
4313;SDS011;2170;48.794;9.182;2022-09-09T11:13:25;2.97;;;1.37;;
4313;SDS011;2170;48.794;9.182;2022-09-09T11:15:54;2.00;;;1.37;;
4313;SDS011;2170;48.794;9.182;2022-09-09T11:18:25;3.53;;;1.50;;
4313;SDS011;2170;48.794;9.182;2022-09-09T11:20:57;3.87;;;1.00;;
4313;SDS011;2170;48.794;9.182;2022-09-09T11:23:26;3.37;;;1.13;;
4313;SDS011;2170;48.794;9.182;2022-09-09T11:25:54;3.60;;;1.10;;
4313;SDS011;2170;48.794;9.182;2022-09-09T11:28:31;1.30;;;0.90;;
4313;SDS011;2170;48.794;9.182;2022-09-09T11:31:03;1.20;;;0.80;;
4313;SDS011;2170;48.794;9.182;2022-09-09T11:33:37;2.40;;;1.17;;
4313;SDS011;2170;48.794;9.182;2022-09-09T11:36:16;2.13;;;1.07;;
4313;SDS011;2170;48.794;9.182;2022-09-09T11:38:49;1.37;;;0.90;;
4313;SDS011;2170;48.794;9.182;2022-09-09T11:41:17;2.30;;;0.90;;
4313;SDS011;2170;48.794;9.182;2022-09-09T11:43:47;1.63;;;1.00;;
4313;SDS011;2170;48.794;9.182;2022-09-09T11:46:16;1.00;;;0.70;;
4313;SDS011;2170;48.794;9.182;2022-09-09T11:48:44;3.43;;;0.97;;
4313;SDS011;2170;48.794;9.182;2022-09-09T11:51:12;3.60;;;0.80;;
4313;SDS011;2170;48.794;9.182;2022-09-09T11:53:50;2.50;;;0.70;;
4313;SDS011;2170;48.794;9.182;2022-09-09T11:56:24;1.67;;;0.70;;
4313;SDS011;2170;48.794;9.182;2022-09-09T11:58:56;1.23;;;0.70;;
4313;SDS011;2170;48.794;9.182;2022-09-09T12:01:34;1.07;;;0.60;;
4313;SDS011;2170;48.794;9.182;2022-09-09T12:04:06;1.30;;;0.97;;
4313;SDS011;2170;48.794;9.182;2022-09-09T12:06:41;0.50;;;0.50;;
4313;SDS011;2170;48.794;9.182;2022-09-09T12:09:13;0.70;;;0.70;;
4313;SDS011;2170;48.794;9.182;2022-09-09T12:11:43;3.80;;;0.67;;
4313;SDS011;2170;48.794;9.182;2022-09-09T12:14:20;2.40;;;1.30;;
4313;SDS011;2170;48.794;9.182;2022-09-09T12:16:47;1.80;;;0.70;;
4313;SDS011;2170;48.794;9.182;2022-09-09T12:19:16;1.77;;;0.60;;
4313;SDS011;2170;48.794;9.182;2022-09-09T12:21:47;1.33;;;0.60;;
4313;SDS011;2170;48.794;9.182;2022-09-09T12:24:17;1.03;;;0.90;;
4313;SDS011;2170;48.794;9.182;2022-09-09T12:26:47;1.07;;;0.77;;
4313;SDS011;2170;48.794;9.182;2022-09-09T12:29:21;1.47;;;0.87;;
4313;SDS011;2170;48.794;9.182;2022-09-09T12:31:51;0.50;;;0.50;;
4313;SDS011;2170;48.794;9.182;2022-09-09T12:34:25;1.20;;;0.83;;
4313;SDS011;2170;48.794;9.182;2022-09-09T12:36:57;3.23;;;0.80;;
4313;SDS011;2170;48.794;9.182;2022-09-09T12:39:28;0.80;;;0.63;;
4313;SDS011;2170;48.794;9.182;2022-09-09T12:41:56;1.37;;;0.80;;
4313;SDS011;2170;48.794;9.182;2022-09-09T12:44:25;0.70;;;0.40;;
4313;SDS011;2170;48.794;9.182;2022-09-09T12:46:53;2.10;;;0.50;;
4313;SDS011;2170;48.794;9.182;2022-09-09T12:49:24;3.23;;;0.50;;
4313;SDS011;2170;48.794;9.182;2022-09-09T12:51:52;1.07;;;0.40;;
4313;SDS011;2170;48.794;9.182;2022-09-09T12:54:22;2.10;;;0.73;;
4313;SDS011;2170;48.794;9.182;2022-09-09T12:56:49;0.50;;;0.40;;
4313;SDS011;2170;48.794;9.182;2022-09-09T12:59:21;1.47;;;0.70;;
4313;SDS011;2170;48.794;9.182;2022-09-09T13:01:56;2.33;;;1.00;;
4313;SDS011;2170;48.794;9.182;2022-09-09T13:04:23;1.03;;;0.50;;
4313;SDS011;2170;48.794;9.182;2022-09-09T13:06:50;1.53;;;0.70;;
4313;SDS011;2170;48.794;9.182;2022-09-09T13:09:18;0.90;;;0.57;;
4313;SDS011;2170;48.794;9.182;2022-09-09T13:11:46;0.83;;;0.60;;
4313;SDS011;2170;48.794;9.182;2022-09-09T13:14:15;1.23;;;0.60;;
4313;SDS011;2170;48.794;9.182;2022-09-09T13:16:43;0.67;;;0.50;;
4313;SDS011;2170;48.794;9.182;2022-09-09T13:19:14;2.50;;;0.80;;
4313;SDS011;2170;48.794;9.182;2022-09-09T13:21:42;1.70;;;0.60;;
4313;SDS011;2170;48.794;9.182;2022-09-09T13:24:21;0.67;;;0.67;;
4313;SDS011;2170;48.794;9.182;2022-09-09T13:26:54;1.43;;;0.77;;
4313;SDS011;2170;48.794;9.182;2022-09-09T13:29:22;0.70;;;0.50;;
4313;SDS011;2170;48.794;9.182;2022-09-09T13:31:49;0.60;;;0.60;;
4313;SDS011;2170;48.794;9.182;2022-09-09T13:34:26;1.67;;;0.83;;
4313;SDS011;2170;48.794;9.182;2022-09-09T13:36:54;1.97;;;0.70;;
4313;SDS011;2170;48.794;9.182;2022-09-09T13:39:24;1.20;;;0.60;;
4313;SDS011;2170;48.794;9.182;2022-09-09T13:41:51;0.73;;;0.63;;
4313;SDS011;2170;48.794;9.182;2022-09-09T13:44:19;1.93;;;0.63;;
4313;SDS011;2170;48.794;9.182;2022-09-09T13:46:58;1.23;;;0.93;;
4313;SDS011;2170;48.794;9.182;2022-09-09T13:49:28;3.43;;;0.73;;
4313;SDS011;2170;48.794;9.182;2022-09-09T13:52:03;1.50;;;0.90;;
4313;SDS011;2170;48.794;9.182;2022-09-09T13:54:30;4.00;;;1.03;;
4313;SDS011;2170;48.794;9.182;2022-09-09T13:56:57;1.10;;;0.70;;
4313;SDS011;2170;48.794;9.182;2022-09-09T13:59:25;1.43;;;0.70;;
4313;SDS011;2170;48.794;9.182;2022-09-09T14:01:52;1.97;;;0.70;;
4313;SDS011;2170;48.794;9.182;2022-09-09T14:04:19;1.07;;;0.70;;
4313;SDS011;2170;48.794;9.182;2022-09-09T14:06:48;1.37;;;0.80;;
4313;SDS011;2170;48.794;9.182;2022-09-09T14:09:16;0.93;;;0.77;;
4313;SDS011;2170;48.794;9.182;2022-09-09T14:11:43;0.90;;;0.70;;
4313;SDS011;2170;48.794;9.182;2022-09-09T14:14:11;2.00;;;0.73;;
4313;SDS011;2170;48.794;9.182;2022-09-09T14:16:38;1.17;;;0.63;;
4313;SDS011;2170;48.794;9.182;2022-09-09T14:19:05;1.50;;;0.67;;
4313;SDS011;2170;48.794;9.182;2022-09-09T14:21:32;0.50;;;0.40;;
4313;SDS011;2170;48.794;9.182;2022-09-09T14:24:00;1.07;;;0.50;;
4313;SDS011;2170;48.794;9.182;2022-09-09T14:26:28;0.80;;;0.40;;
4313;SDS011;2170;48.794;9.182;2022-09-09T14:28:55;4.37;;;0.60;;
4313;SDS011;2170;48.794;9.182;2022-09-09T14:31:22;1.40;;;0.70;;
4313;SDS011;2170;48.794;9.182;2022-09-09T14:33:49;1.63;;;0.90;;
4313;SDS011;2170;48.794;9.182;2022-09-09T14:36:17;1.43;;;0.60;;
4313;SDS011;2170;48.794;9.182;2022-09-09T14:38:44;2.17;;;0.77;;
4313;SDS011;2170;48.794;9.182;2022-09-09T14:41:14;1.90;;;0.63;;
4313;SDS011;2170;48.794;9.182;2022-09-09T14:43:41;2.40;;;0.70;;
4313;SDS011;2170;48.794;9.182;2022-09-09T14:46:09;1.00;;;0.50;;
4313;SDS011;2170;48.794;9.182;2022-09-09T14:48:37;0.40;;;0.40;;
4313;SDS011;2170;48.794;9.182;2022-09-09T14:51:06;1.87;;;0.60;;
4313;SDS011;2170;48.794;9.182;2022-09-09T14:53:33;0.63;;;0.60;;
4313;SDS011;2170;48.794;9.182;2022-09-09T14:56:04;2.37;;;0.67;;
4313;SDS011;2170;48.794;9.182;2022-09-09T14:58:32;0.60;;;0.50;;
4313;SDS011;2170;48.794;9.182;2022-09-09T15:01:03;1.07;;;0.60;;
4313;SDS011;2170;48.794;9.182;2022-09-09T15:03:30;1.40;;;0.60;;
4313;SDS011;2170;48.794;9.182;2022-09-09T15:05:58;1.27;;;0.73;;
4313;SDS011;2170;48.794;9.182;2022-09-09T15:08:25;2.37;;;0.97;;
4313;SDS011;2170;48.794;9.182;2022-09-09T15:10:58;0.83;;;0.50;;
4313;SDS011;2170;48.794;9.182;2022-09-09T15:13:25;0.77;;;0.40;;
4313;SDS011;2170;48.794;9.182;2022-09-09T15:15:53;0.40;;;0.40;;
4313;SDS011;2170;48.794;9.182;2022-09-09T15:18:20;0.97;;;0.60;;
4313;SDS011;2170;48.794;9.182;2022-09-09T15:20:47;0.93;;;0.50;;
4313;SDS011;2170;48.794;9.182;2022-09-09T15:23:14;2.00;;;0.80;;
4313;SDS011;2170;48.794;9.182;2022-09-09T15:25:49;0.80;;;0.67;;
4313;SDS011;2170;48.794;9.182;2022-09-09T15:28:17;1.13;;;0.73;;
4313;SDS011;2170;48.794;9.182;2022-09-09T15:30:46;0.80;;;0.50;;
4313;SDS011;2170;48.794;9.182;2022-09-09T15:33:15;1.30;;;0.80;;
4313;SDS011;2170;48.794;9.182;2022-09-09T15:35:42;1.07;;;0.80;;
4313;SDS011;2170;48.794;9.182;2022-09-09T15:38:09;1.80;;;0.80;;
4313;SDS011;2170;48.794;9.182;2022-09-09T15:40:38;0.83;;;0.60;;